Time;durP1;ratioP1;P1;durP2;ratioP2;P2;SDS_P1;SDS_P2;PMS_P1;PMS_P2;Temp;Humidity;BMP_temperature;BMP_pressure;BME280_temperature;BME280_humidity;BME280_pressure;Samples;Min_cycle;Max_cycle;Signal;HPM_P1;HPM_P2
2022/11/12 00:00:02;;;;;;;27.02;19.92;;;;;;;;;;5092436;28;20113;-79
2022/11/12 00:02:28;;;;;;;26.65;19.48;;;;;;;;;;5092620;28;20047;-79
2022/11/12 00:04:54;;;;;;;27.92;20.27;;;;;;;;;;5091784;28;20125;-83
2022/11/12 00:07:20;;;;;;;28.17;20.67;;;;;;;;;;5092383;28;20495;-80
2022/11/12 00:09:46;;;;;;;22.48;16.65;;;;;;;;;;5092298;28;20027;-78
2022/11/12 00:12:12;;;;;;;22.25;17.15;;;;;;;;;;5092494;28;20157;-83
2022/11/12 00:14:38;;;;;;;25.33;18.30;;;;;;;;;;5092230;28;20039;-81
2022/11/12 00:17:04;;;;;;;26.40;20.42;;;;;;;;;;5092022;28;20506;-84
2022/11/12 00:19:30;;;;;;;28.08;20.10;;;;;;;;;;5092479;28;20093;-80
2022/11/12 00:21:56;;;;;;;25.50;18.67;;;;;;;;;;5092278;28;20024;-79
2022/11/12 00:24:22;;;;;;;26.80;20.15;;;;;;;;;;5092488;28;20028;-82
2022/11/12 00:26:48;;;;;;;28.63;20.17;;;;;;;;;;5091819;28;20566;-79
2022/11/12 00:29:14;;;;;;;28.13;20.77;;;;;;;;;;5091699;28;20359;-80
2022/11/12 00:31:40;;;;;;;26.77;19.52;;;;;;;;;;5092529;28;20028;-82
2022/11/12 00:34:07;;;;;;;28.63;19.73;;;;;;;;;;5087625;28;20032;-78
2022/11/12 00:36:33;;;;;;;25.88;21.17;;;;;;;;;;5071655;28;20043;-81
2022/11/12 00:38:59;;;;;;;28.27;19.83;;;;;;;;;;5071886;28;20058;-81
2022/11/12 00:41:25;;;;;;;27.35;19.30;;;;;;;;;;5073596;28;20027;-79
2022/11/12 00:43:51;;;;;;;30.17;22.63;;;;;;;;;;5092117;28;20046;-79
2022/11/12 00:46:17;;;;;;;29.17;22.10;;;;;;;;;;5092114;28;20378;-81
2022/11/12 00:48:43;;;;;;;27.30;21.65;;;;;;;;;;5092179;28;20028;-80
2022/11/12 00:51:09;;;;;;;25.25;19.02;;;;;;;;;;5092862;28;20035;-80
2022/11/12 00:53:35;;;;;;;29.23;20.95;;;;;;;;;;5076494;28;20022;-82
2022/11/12 00:56:02;;;;;;;29.02;21.98;;;;;;;;;;5095795;28;20016;-83
2022/11/12 00:58:29;;;;;;;29.88;20.85;;;;;;;;;;5095826;28;20030;-82
2022/11/12 01:00:56;;;;;;;29.25;21.27;;;;;;;;;;5095919;28;20035;-81
2022/11/12 01:03:22;;;;;;;29.08;21.23;;;;;;;;;;5095065;28;20055;-77
2022/11/12 01:05:48;;;;;;;29.02;21.42;;;;;;;;;;5077677;28;20421;-79
2022/11/12 01:08:14;;;;;;;29.88;22.10;;;;;;;;;;5095346;28;20017;-80
2022/11/12 01:10:40;;;;;;;28.50;20.40;;;;;;;;;;5095577;28;20036;-81
2022/11/12 01:13:06;;;;;;;31.02;22.40;;;;;;;;;;5096175;28;20030;-79
2022/11/12 01:15:32;;;;;;;29.95;20.85;;;;;;;;;;5096371;28;20378;-78
2022/11/12 01:17:58;;;;;;;29.33;21.35;;;;;;;;;;5095449;28;20020;-79
2022/11/12 01:20:24;;;;;;;32.20;22.30;;;;;;;;;;5094507;28;20032;-79
2022/11/12 01:22:50;;;;;;;33.42;23.10;;;;;;;;;;5077467;28;20378;-80
2022/11/12 01:25:16;;;;;;;31.20;23.45;;;;;;;;;;5095208;28;20069;-82
2022/11/12 01:27:42;;;;;;;32.42;22.75;;;;;;;;;;5095112;28;20032;-80
2022/11/12 01:30:09;;;;;;;31.35;22.90;;;;;;;;;;5094812;28;20491;-82
2022/11/12 01:32:36;;;;;;;28.23;20.40;;;;;;;;;;5095107;28;20098;-82
2022/11/12 01:35:02;;;;;;;31.08;22.83;;;;;;;;;;5095207;28;20020;-77
2022/11/12 01:37:28;;;;;;;27.30;19.65;;;;;;;;;;5094921;28;20478;-81
2022/11/12 01:39:55;;;;;;;30.83;21.70;;;;;;;;;;5094876;28;20055;-81
2022/11/12 01:42:23;;;;;;;32.13;23.33;;;;;;;;;;5094873;28;20102;-78
2022/11/12 01:44:52;;;;;;;29.15;21.33;;;;;;;;;;5095201;28;20026;-81
2022/11/12 01:47:27;;;;;;;32.60;22.90;;;;;;;;;;5094739;28;20077;-82
2022/11/12 01:49:58;;;;;;;30.67;23.00;;;;;;;;;;5094772;28;20467;-81
2022/11/12 01:52:28;;;;;;;33.72;22.10;;;;;;;;;;5095083;28;20032;-80
2022/11/12 01:54:57;;;;;;;33.45;22.35;;;;;;;;;;5094703;28;20028;-78
2022/11/12 01:57:36;;;;;;;34.10;24.85;;;;;;;;;;5094492;28;20024;-84
2022/11/12 02:00:07;;;;;;;33.15;25.15;;;;;;;;;;5072414;28;20114;-78
2022/11/12 02:02:34;;;;;;;33.88;24.50;;;;;;;;;;5074388;28;20025;-82
2022/11/12 02:05:01;;;;;;;32.13;22.15;;;;;;;;;;5074082;28;20064;-80
2022/11/12 02:07:28;;;;;;;31.75;22.30;;;;;;;;;;5074385;28;20082;-79
2022/11/12 02:09:54;;;;;;;33.10;22.77;;;;;;;;;;5073828;28;20062;-77
2022/11/12 02:15:05;;;;;;;;;;;;;;;;;;5074964;28;20052;-82
2022/11/12 02:17:31;;;;;;;35.25;23.98;;;;;;;;;;5072829;28;19912;-83
2022/11/12 02:19:58;;;;;;;35.70;24.00;;;;;;;;;;5073492;28;20490;-80
2022/11/12 02:22:24;;;;;;;34.17;23.77;;;;;;;;;;5073842;28;20477;-81
2022/11/12 02:24:50;;;;;;;33.33;23.05;;;;;;;;;;5073439;28;20043;-81
2022/11/12 02:27:16;;;;;;;33.38;23.88;;;;;;;;;;5073584;28;20056;-80
2022/11/12 02:29:45;;;;;;;32.60;24.10;;;;;;;;;;5073532;28;20028;-79
2022/11/12 02:32:12;;;;;;;31.58;22.63;;;;;;;;;;5074177;28;20478;-80
2022/11/12 02:34:39;;;;;;;35.00;24.60;;;;;;;;;;5073490;28;20060;-79
2022/11/12 02:37:05;;;;;;;31.55;23.02;;;;;;;;;;5073338;28;20020;-79
2022/11/12 02:39:31;;;;;;;32.55;23.02;;;;;;;;;;5073726;28;20147;-84
2022/11/12 02:41:58;;;;;;;32.60;22.92;;;;;;;;;;5073603;28;20035;-78
2022/11/12 02:44:24;;;;;;;31.15;21.60;;;;;;;;;;5073720;28;20066;-85
2022/11/12 02:46:50;;;;;;;29.30;21.95;;;;;;;;;;5071666;28;20062;-79
2022/11/12 02:49:16;;;;;;;35.55;23.95;;;;;;;;;;5073581;28;20100;-78
2022/11/12 02:51:42;;;;;;;35.90;24.27;;;;;;;;;;5073190;28;20028;-83
2022/11/12 02:54:08;;;;;;;34.08;25.13;;;;;;;;;;5073484;28;20035;-80
2022/11/12 02:56:34;;;;;;;34.92;24.80;;;;;;;;;;5073335;28;20024;-80
2022/11/12 02:59:00;;;;;;;33.92;23.60;;;;;;;;;;5071698;28;20060;-80
2022/11/12 03:01:27;;;;;;;37.45;26.58;;;;;;;;;;5073322;28;20115;-83
2022/11/12 03:03:53;;;;;;;32.97;23.50;;;;;;;;;;5073003;28;20056;-79
2022/11/12 03:06:19;;;;;;;37.60;25.23;;;;;;;;;;5073282;28;20090;-81
2022/11/12 03:08:45;;;;;;;33.95;25.35;;;;;;;;;;5072260;28;20471;-82
2022/11/12 03:11:12;;;;;;;36.13;26.77;;;;;;;;;;5073163;28;20395;-78
2022/11/12 03:13:39;;;;;;;34.42;25.75;;;;;;;;;;5072681;28;20109;-80
2022/11/12 03:16:05;;;;;;;37.80;24.95;;;;;;;;;;5072688;28;20030;-81
2022/11/12 03:18:31;;;;;;;37.95;27.10;;;;;;;;;;5072558;28;20380;-83
2022/11/12 03:20:57;;;;;;;35.63;25.05;;;;;;;;;;5072934;28;20016;-81
2022/11/12 03:23:23;;;;;;;35.67;26.30;;;;;;;;;;5073153;28;20089;-82
2022/11/12 03:25:49;;;;;;;36.60;26.63;;;;;;;;;;5072899;28;20119;-80
2022/11/12 03:28:16;;;;;;;37.45;25.67;;;;;;;;;;5072659;28;20032;-81
2022/11/12 03:30:42;;;;;;;36.13;24.48;;;;;;;;;;5072856;28;20021;-80
2022/11/12 03:33:09;;;;;;;39.15;25.95;;;;;;;;;;5072851;28;20142;-81
2022/11/12 03:35:36;;;;;;;40.08;25.95;;;;;;;;;;5071581;28;20031;-80
2022/11/12 03:38:02;;;;;;;35.70;26.33;;;;;;;;;;5072244;28;20443;-81
2022/11/12 03:40:28;;;;;;;34.50;25.45;;;;;;;;;;5072789;28;20024;-81
2022/11/12 03:42:54;;;;;;;35.90;26.30;;;;;;;;;;5072551;28;20025;-79
2022/11/12 03:45:21;;;;;;;32.35;23.15;;;;;;;;;;5072468;28;20029;-80
2022/11/12 03:47:49;;;;;;;33.08;23.92;;;;;;;;;;5072072;28;20091;-83
2022/11/12 03:50:16;;;;;;;40.90;26.88;;;;;;;;;;5072609;28;20380;-80
2022/11/12 03:52:45;;;;;;;36.30;25.00;;;;;;;;;;5072766;28;20024;-81
2022/11/12 03:55:11;;;;;;;38.58;28.10;;;;;;;;;;5072417;28;20024;-80
2022/11/12 03:57:38;;;;;;;33.75;22.13;;;;;;;;;;5072453;28;20497;-82
2022/11/12 04:00:05;;;;;;;39.47;26.30;;;;;;;;;;5087059;28;20055;-78
2022/11/12 04:02:32;;;;;;;33.53;25.75;;;;;;;;;;5093314;28;20024;-81
2022/11/12 04:10:28;;;;;;;35.00;23.00;;;;;;;;;;5092498;28;20035;-82
2022/11/12 04:15:39;;;;;;;38.88;25.67;;;;;;;;;;5092694;28;20035;-79
2022/11/12 04:23:34;;;;;;;38.83;24.48;;;;;;;;;;5092771;28;20501;-82
2022/11/12 04:31:29;;;;;;;36.95;24.35;;;;;;;;;;5096180;28;20080;-82
2022/11/12 04:34:27;;;;;;;37.03;25.60;;;;;;;;;;5096163;28;20024;-82
2022/11/12 04:36:42;;;;;;;36.28;25.10;;;;;;;;;;5096043;28;20878;-81
2022/11/12 04:39:08;;;;;;;41.22;26.60;;;;;;;;;;5095438;28;20027;-83
2022/11/12 04:47:03;;;;;;;39.97;25.83;;;;;;;;;;5095759;28;20450;-79
2022/11/12 04:49:29;;;;;;;38.65;25.52;;;;;;;;;;5096151;28;20018;-80
2022/11/12 04:54:39;;;;;;;34.33;25.20;;;;;;;;;;5095634;28;20030;-80
2022/11/12 04:57:05;;;;;;;39.20;25.60;;;;;;;;;;5095388;28;20032;-83
2022/11/12 04:59:32;;;;;;;38.28;26.30;;;;;;;;;;5095418;28;20111;-81
2022/11/12 05:01:58;;;;;;;38.53;24.98;;;;;;;;;;5095704;28;20028;-82
2022/11/12 05:04:26;;;;;;;37.17;26.05;;;;;;;;;;5096732;28;20489;-80
2022/11/12 05:06:53;;;;;;;37.40;25.27;;;;;;;;;;5095470;28;20482;-82
2022/11/12 05:09:21;;;;;;;36.20;24.73;;;;;;;;;;5077284;28;20016;-82
2022/11/12 05:11:47;;;;;;;38.90;25.10;;;;;;;;;;5095241;28;20024;-82
2022/11/12 05:14:13;;;;;;;40.80;26.98;;;;;;;;;;5095608;28;20485;-83
2022/11/12 05:16:39;;;;;;;39.83;28.70;;;;;;;;;;5095021;28;20024;-85
2022/11/12 05:19:05;;;;;;;44.85;31.80;;;;;;;;;;5095595;28;20459;-83
2022/11/12 05:24:16;;;;;;;41.83;30.13;;;;;;;;;;5095318;28;20040;-80
2022/11/12 05:26:42;;;;;;;37.50;26.75;;;;;;;;;;5095015;28;20525;-77
2022/11/12 05:29:08;;;;;;;39.60;26.63;;;;;;;;;;5095197;28;20030;-81
2022/11/12 05:31:34;;;;;;;35.40;24.55;;;;;;;;;;5095037;28;20031;-81
2022/11/12 05:34:00;;;;;;;38.20;27.05;;;;;;;;;;5095121;28;20103;-87
2022/11/12 05:36:26;;;;;;;35.35;25.13;;;;;;;;;;5094461;28;20016;-84
2022/11/12 05:38:52;;;;;;;39.83;26.48;;;;;;;;;;5076931;28;20073;-81
2022/11/12 05:41:19;;;;;;;38.17;27.65;;;;;;;;;;5094839;28;20434;-79
2022/11/12 05:43:45;;;;;;;38.45;26.27;;;;;;;;;;5094621;28;20031;-82
2022/11/12 05:46:11;;;;;;;39.03;26.80;;;;;;;;;;5094945;28;20020;-83
2022/11/12 05:48:37;;;;;;;37.17;25.20;;;;;;;;;;5094754;28;20027;-83
2022/11/12 05:51:03;;;;;;;37.75;24.63;;;;;;;;;;5094769;28;20070;-80
2022/11/12 05:53:29;;;;;;;37.75;26.13;;;;;;;;;;5094453;28;20383;-82
2022/11/12 05:56:01;;;;;;;40.03;27.83;;;;;;;;;;5094768;28;20024;-81
2022/11/12 05:58:27;;;;;;;39.25;27.65;;;;;;;;;;5077513;28;20020;-84
2022/11/12 06:00:53;;;;;;;40.08;27.38;;;;;;;;;;5094550;28;20113;-83
2022/11/12 06:03:19;;;;;;;40.63;27.13;;;;;;;;;;5094532;28;20471;-76
2022/11/12 06:05:45;;;;;;;38.92;25.20;;;;;;;;;;5094250;28;20141;-83
2022/11/12 06:08:11;;;;;;;38.70;26.42;;;;;;;;;;5094477;28;20383;-83
2022/11/12 06:10:37;;;;;;;38.28;25.52;;;;;;;;;;5076152;28;20020;-81
2022/11/12 06:13:03;;;;;;;39.13;27.35;;;;;;;;;;5094330;28;20031;-79
2022/11/12 06:15:29;;;;;;;33.22;24.15;;;;;;;;;;5094174;28;20053;-80
2022/11/12 06:17:56;;;;;;;38.15;25.77;;;;;;;;;;5094224;28;20024;-82
2022/11/12 06:20:22;;;;;;;37.70;26.45;;;;;;;;;;5094314;28;20070;-82
2022/11/12 06:22:48;;;;;;;35.10;25.50;;;;;;;;;;5094027;28;20036;-80
2022/11/12 06:25:15;;;;;;;32.92;23.40;;;;;;;;;;5094195;28;20056;-79
2022/11/12 06:27:41;;;;;;;30.00;22.13;;;;;;;;;;5093942;28;20054;-81
2022/11/12 06:30:07;;;;;;;32.58;23.50;;;;;;;;;;5094040;28;20020;-80
2022/11/12 06:32:34;;;;;;;31.73;22.23;;;;;;;;;;5093729;28;20529;-82
2022/11/12 06:35:00;;;;;;;30.20;21.42;;;;;;;;;;5093900;28;20012;-78
2022/11/12 06:37:26;;;;;;;30.15;21.60;;;;;;;;;;5094048;28;20020;-80
2022/11/12 06:39:52;;;;;;;30.85;21.83;;;;;;;;;;5093510;28;20020;-80
2022/11/12 06:42:18;;;;;;;30.00;21.45;;;;;;;;;;5093800;28;20024;-84
2022/11/12 06:44:44;;;;;;;26.58;18.02;;;;;;;;;;5075265;28;20036;-84
2022/11/12 06:47:11;;;;;;;29.65;20.40;;;;;;;;;;5093463;28;20024;-82
2022/11/12 06:49:37;;;;;;;28.05;19.00;;;;;;;;;;5092844;28;20028;-78
2022/11/12 06:52:03;;;;;;;24.35;18.38;;;;;;;;;;5093164;28;20024;-85
2022/11/12 06:54:29;;;;;;;28.83;21.15;;;;;;;;;;5093294;28;20081;-83
2022/11/12 06:56:55;;;;;;;27.90;19.70;;;;;;;;;;5093320;28;20028;-82
2022/11/12 06:59:21;;;;;;;28.65;21.17;;;;;;;;;;5093092;28;20051;-83
2022/11/12 07:01:47;;;;;;;24.58;17.50;;;;;;;;;;5093308;28;20089;-85
2022/11/12 07:04:13;;;;;;;27.75;19.38;;;;;;;;;;5094509;28;20024;-79
2022/11/12 07:06:39;;;;;;;25.40;17.27;;;;;;;;;;5094166;28;20047;-82
2022/11/12 07:09:06;;;;;;;23.45;16.17;;;;;;;;;;5093167;28;20016;-82
2022/11/12 07:11:32;;;;;;;25.05;15.93;;;;;;;;;;5093235;28;20024;-80
2022/11/12 07:13:58;;;;;;;24.30;17.60;;;;;;;;;;5093028;28;20027;-80
2022/11/12 07:16:24;;;;;;;23.45;17.10;;;;;;;;;;5093320;28;20024;-79
2022/11/12 07:18:50;;;;;;;22.05;15.90;;;;;;;;;;5093740;28;20028;-82
2022/11/12 07:21:17;;;;;;;21.63;15.43;;;;;;;;;;5093392;28;20481;-81
2022/11/12 07:23:43;;;;;;;22.77;17.10;;;;;;;;;;5093608;28;20059;-80
2022/11/12 07:26:17;;;;;;;20.60;15.93;;;;;;;;;;5092700;28;20107;-80
2022/11/12 07:28:44;;;;;;;19.42;13.82;;;;;;;;;;5091344;28;20522;-81
2022/11/12 07:31:11;;;;;;;22.05;14.77;;;;;;;;;;5092486;28;20038;-82
2022/11/12 07:33:37;;;;;;;19.02;12.90;;;;;;;;;;5092854;28;20054;-85
2022/11/12 07:36:07;;;;;;;19.63;14.02;;;;;;;;;;5081701;28;20024;-83
2022/11/12 07:38:34;;;;;;;18.98;12.93;;;;;;;;;;5072483;28;20472;-82
2022/11/12 07:41:00;;;;;;;15.63;11.82;;;;;;;;;;5072756;28;20039;-80
2022/11/12 07:43:27;;;;;;;16.02;11.93;;;;;;;;;;5072281;28;20414;-80
2022/11/12 07:45:56;;;;;;;13.52;10.90;;;;;;;;;;5072373;28;20021;-82
2022/11/12 07:48:22;;;;;;;14.35;11.52;;;;;;;;;;5072311;28;20024;-82
2022/11/12 07:50:48;;;;;;;14.65;11.45;;;;;;;;;;5072676;28;20020;-79
2022/11/12 07:53:14;;;;;;;13.75;10.15;;;;;;;;;;5071996;28;20023;-82
2022/11/12 07:55:41;;;;;;;14.10;10.70;;;;;;;;;;5072695;28;20406;-78
2022/11/12 07:58:07;;;;;;;14.13;9.65;;;;;;;;;;5072341;28;20025;-81
2022/11/12 08:00:33;;;;;;;13.30;10.43;;;;;;;;;;5074544;28;20052;-81
2022/11/12 08:03:02;;;;;;;12.05;9.23;;;;;;;;;;5078313;28;20024;-81
2022/11/12 08:05:28;;;;;;;10.45;8.73;;;;;;;;;;5076445;28;20029;-83
2022/11/12 08:07:55;;;;;;;12.25;9.02;;;;;;;;;;5075793;28;20032;-82
2022/11/12 08:10:22;;;;;;;13.15;10.25;;;;;;;;;;5076143;28;20521;-81
2022/11/12 08:12:48;;;;;;;11.57;9.02;;;;;;;;;;5076260;28;20074;-82
2022/11/12 08:15:14;;;;;;;13.55;10.70;;;;;;;;;;5075846;28;20021;-82
2022/11/12 08:17:40;;;;;;;17.92;13.18;;;;;;;;;;5076014;28;20108;-81
2022/11/12 08:20:06;;;;;;;19.88;13.82;;;;;;;;;;5076220;28;20054;-82
2022/11/12 08:22:32;;;;;;;17.02;13.80;;;;;;;;;;5076021;28;20033;-81
2022/11/12 08:24:58;;;;;;;16.65;13.52;;;;;;;;;;5075853;28;20395;-82
2022/11/12 08:27:24;;;;;;;14.80;10.75;;;;;;;;;;5075763;28;20021;-82
2022/11/12 08:29:50;;;;;;;12.45;10.35;;;;;;;;;;5076272;28;20023;-80
2022/11/12 08:32:17;;;;;;;12.32;9.68;;;;;;;;;;5075547;28;20047;-85
2022/11/12 08:34:43;;;;;;;9.13;6.93;;;;;;;;;;5058021;28;20028;-81
2022/11/12 08:37:09;;;;;;;5.85;5.20;;;;;;;;;;5075938;28;20387;-82
2022/11/12 08:39:35;;;;;;;5.80;4.53;;;;;;;;;;5075768;28;20029;-81
2022/11/12 08:42:01;;;;;;;5.78;5.03;;;;;;;;;;5075832;28;20113;-80
2022/11/12 08:44:27;;;;;;;4.93;3.50;;;;;;;;;;5075446;28;20494;-78
2022/11/12 08:46:53;;;;;;;9.95;6.90;;;;;;;;;;5075348;28;20054;-80
2022/11/12 08:49:19;;;;;;;9.63;7.47;;;;;;;;;;5075742;28;20017;-79
2022/11/12 08:51:45;;;;;;;9.95;8.07;;;;;;;;;;5075438;28;20028;-82
2022/11/12 08:54:11;;;;;;;9.88;7.95;;;;;;;;;;5075516;28;20024;-81
2022/11/12 08:56:38;;;;;;;15.05;10.88;;;;;;;;;;5075639;28;20432;-80
2022/11/12 08:59:05;;;;;;;12.38;9.45;;;;;;;;;;5075584;28;20044;-84
2022/11/12 09:01:31;;;;;;;9.77;7.45;;;;;;;;;;5074969;28;20135;-80
2022/11/12 09:03:57;;;;;;;11.10;7.07;;;;;;;;;;5057528;28;20043;-82
2022/11/12 09:06:23;;;;;;;9.48;7.00;;;;;;;;;;5075256;28;20063;-82
2022/11/12 09:08:49;;;;;;;7.80;6.25;;;;;;;;;;5073115;28;20422;-80
2022/11/12 09:11:15;;;;;;;9.40;7.13;;;;;;;;;;5063405;28;20025;-81
2022/11/12 09:13:41;;;;;;;7.78;6.22;;;;;;;;;;5072315;28;20432;-80
2022/11/12 09:16:09;;;;;;;11.15;9.00;;;;;;;;;;5056771;28;20037;-80
2022/11/12 09:18:35;;;;;;;9.35;7.10;;;;;;;;;;5054822;28;20025;-84
2022/11/12 09:21:05;;;;;;;8.93;7.57;;;;;;;;;;5073555;28;20374;-80
2022/11/12 09:23:33;;;;;;;10.55;7.85;;;;;;;;;;5074612;28;20027;-79
2022/11/12 09:25:59;;;;;;;8.40;6.05;;;;;;;;;;5075011;28;20032;-84
2022/11/12 09:28:25;;;;;;;25.92;17.40;;;;;;;;;;5074699;28;20103;-81
2022/11/12 09:30:52;;;;;;;12.85;9.05;;;;;;;;;;5074523;28;20028;-80
2022/11/12 09:33:22;;;;;;;9.90;7.93;;;;;;;;;;5074330;28;20456;-81
2022/11/12 09:35:49;;;;;;;8.55;6.70;;;;;;;;;;5056842;28;20055;-80
2022/11/12 09:38:16;;;;;;;7.88;6.38;;;;;;;;;;5056750;28;20032;-81
2022/11/12 09:40:45;;;;;;;8.88;7.03;;;;;;;;;;5066355;28;20111;-80
2022/11/12 09:43:16;;;;;;;7.68;6.43;;;;;;;;;;5063033;28;20483;-79
2022/11/12 09:45:42;;;;;;;8.07;6.50;;;;;;;;;;5062793;28;20027;-81
2022/11/12 09:48:11;;;;;;;13.25;9.52;;;;;;;;;;5054341;28;20036;-82
2022/11/12 09:50:39;;;;;;;7.32;5.60;;;;;;;;;;5054329;28;20528;-79
2022/11/12 09:53:24;;;;;;;6.15;4.50;;;;;;;;;;5074367;28;20067;-81
2022/11/12 09:55:50;;;;;;;;;;;;;;;;;;5055513;28;20029;-80
2022/11/12 09:58:17;;;;;;;5.30;4.38;;;;;;;;;;5054568;28;19911;-81
2022/11/12 10:01:02;;;;;;;4.82;4.00;;;;;;;;;;5053465;28;20041;-80
2022/11/12 10:03:47;;;;;;;5.00;3.80;;;;;;;;;;5053923;28;20060;-80
2022/11/12 10:06:35;;;;;;;5.65;4.32;;;;;;;;;;5054255;28;20025;-81
2022/11/12 10:09:08;;;;;;;6.55;4.93;;;;;;;;;;5054256;28;20021;-82
2022/11/12 10:14:39;;;;;;;6.15;3.80;;;;;;;;;;5054542;28;20036;-81
2022/11/12 10:17:08;;;;;;;6.93;4.88;;;;;;;;;;5073491;28;20025;-81
2022/11/12 10:19:49;;;;;;;6.57;4.35;;;;;;;;;;5073092;28;20027;-80
2022/11/12 10:22:15;;;;;;;5.07;3.50;;;;;;;;;;5073647;28;20463;-84
2022/11/12 10:24:42;;;;;;;3.63;3.00;;;;;;;;;;5072363;28;20471;-78
2022/11/12 10:27:14;;;;;;;4.90;3.80;;;;;;;;;;5089222;28;20402;-79
2022/11/12 10:30:01;;;;;;;5.72;4.50;;;;;;;;;;5073171;28;20510;-82
2022/11/12 10:32:27;;;;;;;4.13;3.47;;;;;;;;;;5073472;28;20024;-78
2022/11/12 10:34:53;;;;;;;5.15;3.70;;;;;;;;;;5073277;28;20029;-78
2022/11/12 10:37:20;;;;;;;7.32;5.25;;;;;;;;;;5073332;28;20033;-81
2022/11/12 10:39:46;;;;;;;20.15;13.63;;;;;;;;;;5073221;28;20029;-81
2022/11/12 10:42:19;;;;;;;5.30;4.75;;;;;;;;;;5073588;28;20028;-78
2022/11/12 10:44:45;;;;;;;23.25;14.85;;;;;;;;;;5072844;28;20032;-81
2022/11/12 10:47:31;;;;;;;6.97;5.82;;;;;;;;;;5048617;28;20021;-79
2022/11/12 10:50:03;;;;;;;8.32;6.03;;;;;;;;;;5080090;28;20502;-79
2022/11/12 10:52:29;;;;;;;4.82;3.35;;;;;;;;;;5065698;28;20025;-81
2022/11/12 10:55:14;;;;;;;7.10;4.55;;;;;;;;;;5068405;28;20020;-78
2022/11/12 10:57:40;;;;;;;;;;;;;;;;;;5070863;28;20021;-79
2022/11/12 11:00:08;;;;;;;5.05;3.50;;;;;;;;;;5069969;28;20005;-83
2022/11/12 11:02:34;;;;;;;3.58;3.25;;;;;;;;;;5070380;28;20047;-80
2022/11/12 11:05:00;;;;;;;7.30;4.32;;;;;;;;;;5069422;28;20032;-82
2022/11/12 11:07:26;;;;;;;4.07;3.13;;;;;;;;;;5070400;28;20028;-82
2022/11/12 11:09:56;;;;;;;3.83;3.42;;;;;;;;;;5063494;28;20087;-82
2022/11/12 11:12:33;;;;;;;4.45;2.85;;;;;;;;;;5066333;28;20060;-82
2022/11/12 11:15:06;;;;;;;4.25;3.42;;;;;;;;;;5057815;28;20025;-81
2022/11/12 11:17:33;;;;;;;4.70;2.70;;;;;;;;;;5063051;28;20090;-83
2022/11/12 11:20:00;;;;;;;3.45;2.53;;;;;;;;;;5061206;28;20049;-83
2022/11/12 11:22:29;;;;;;;3.88;2.45;;;;;;;;;;5060105;28;20032;-82
2022/11/12 11:24:55;;;;;;;4.13;3.45;;;;;;;;;;5071941;28;20029;-83
2022/11/12 11:27:30;;;;;;;4.57;2.78;;;;;;;;;;5062973;28;20028;-80
2022/11/12 11:30:10;;;;;;;4.43;3.30;;;;;;;;;;5058132;28;20564;-80
2022/11/12 11:32:36;;;;;;;4.70;3.78;;;;;;;;;;5060331;28;20095;-81
2022/11/12 11:35:05;;;;;;;3.47;3.17;;;;;;;;;;5055988;28;20025;-80
2022/11/12 11:37:36;;;;;;;5.13;3.15;;;;;;;;;;5034631;28;20032;-80
2022/11/12 11:40:11;;;;;;;7.05;6.45;;;;;;;;;;5034361;28;20079;-82
2022/11/12 11:42:37;;;;;;;5.43;4.40;;;;;;;;;;5059425;28;20036;-81
2022/11/12 11:45:15;;;;;;;3.58;2.63;;;;;;;;;;5068993;28;20024;-81
2022/11/12 11:47:44;;;;;;;3.63;3.00;;;;;;;;;;5087877;28;20086;-82
2022/11/12 11:50:16;;;;;;;3.88;3.20;;;;;;;;;;5057047;28;20032;-79
2022/11/12 11:52:45;;;;;;;8.25;6.70;;;;;;;;;;5088011;28;20020;-83
2022/11/12 11:55:31;;;;;;;6.43;4.95;;;;;;;;;;5071084;28;20352;-80
2022/11/12 11:57:58;;;;;;;8.00;5.65;;;;;;;;;;5057150;28;20025;-81
2022/11/12 12:00:25;;;;;;;4.65;3.78;;;;;;;;;;5059142;28;20488;-79
2022/11/12 12:03:11;;;;;;;5.93;4.55;;;;;;;;;;5061628;28;20131;-83
2022/11/12 12:05:55;;;;;;;5.18;3.95;;;;;;;;;;5061632;28;20037;-80
2022/11/12 12:08:40;;;;;;;5.95;4.70;;;;;;;;;;5053245;28;20112;-80
2022/11/12 12:11:11;;;;;;;6.13;4.90;;;;;;;;;;5052326;28;20025;-82
2022/11/12 12:13:46;;;;;;;5.18;3.53;;;;;;;;;;5062669;28;20430;-79
2022/11/12 12:16:31;;;;;;;7.43;4.78;;;;;;;;;;5059571;28;20040;-81
2022/11/12 12:19:16;;;;;;;5.07;4.35;;;;;;;;;;5053496;28;20392;-80
2022/11/12 12:21:42;;;;;;;;;;;;;;;;;;5054117;28;20029;-80
2022/11/12 12:24:17;;;;;;;7.35;4.93;;;;;;;;;;5062916;28;19967;-80
2022/11/12 12:27:09;;;;;;;6.38;5.10;;;;;;;;;;5061787;28;20036;-82
2022/11/12 12:29:54;;;;;;;7.55;6.07;;;;;;;;;;5069059;28;20108;-81
2022/11/12 12:32:23;;;;;;;9.45;7.68;;;;;;;;;;5071308;28;20029;-79
2022/11/12 12:34:53;;;;;;;9.30;6.03;;;;;;;;;;5050487;28;20029;-84
2022/11/12 12:37:22;;;;;;;7.75;6.20;;;;;;;;;;5080284;28;20049;-80
2022/11/12 12:39:52;;;;;;;7.32;5.70;;;;;;;;;;5051995;28;20078;-81
2022/11/12 12:42:22;;;;;;;9.52;6.53;;;;;;;;;;5051524;28;20025;-82
2022/11/12 12:45:00;;;;;;;9.60;7.03;;;;;;;;;;5053974;28;20044;-84
2022/11/12 12:47:29;;;;;;;8.57;6.35;;;;;;;;;;5046905;28;20029;-84
2022/11/12 12:49:56;;;;;;;12.98;6.95;;;;;;;;;;5075440;28;20051;-79
2022/11/12 12:52:22;;;;;;;9.52;7.20;;;;;;;;;;5075144;28;20078;-81
2022/11/12 12:54:48;;;;;;;6.07;5.20;;;;;;;;;;5075656;28;20059;-83
2022/11/12 12:57:29;;;;;;;7.72;6.97;;;;;;;;;;5074850;28;20035;-81
2022/11/12 13:00:14;;;;;;;7.97;5.10;;;;;;;;;;5075482;28;20499;-82
2022/11/12 13:02:40;;;;;;;6.57;5.10;;;;;;;;;;5075221;28;20056;-80
2022/11/12 13:05:21;;;;;;;8.07;6.07;;;;;;;;;;5075224;28;20127;-81
2022/11/12 13:07:49;;;;;;;9.85;7.00;;;;;;;;;;5075491;28;20413;-81
2022/11/12 13:10:34;;;;;;;9.13;5.95;;;;;;;;;;5075283;28;20422;-80
2022/11/12 13:13:00;;;;;;;;;;;;;;;;;;5075496;28;20028;-84
2022/11/12 13:15:40;;;;;;;9.27;7.80;;;;;;;;;;5057371;28;19958;-81
2022/11/12 13:18:09;;;;;;;6.68;4.93;;;;;;;;;;5075189;28;20023;-81
2022/11/12 13:20:36;;;;;;;8.07;6.53;;;;;;;;;;5074701;28;20372;-80
2022/11/12 13:23:03;;;;;;;7.13;5.65;;;;;;;;;;5074997;28;20035;-83
2022/11/12 13:25:31;;;;;;;8.60;7.22;;;;;;;;;;5090593;28;20024;-83
2022/11/12 13:28:03;;;;;;;6.82;5.43;;;;;;;;;;5074581;28;20127;-81
2022/11/12 13:30:29;;;;;;;12.10;6.13;;;;;;;;;;5074579;28;20051;-80
2022/11/12 13:32:56;;;;;;;12.85;8.50;;;;;;;;;;5074632;28;20063;-81
2022/11/12 13:35:26;;;;;;;20.83;13.73;;;;;;;;;;5074345;28;20040;-81
2022/11/12 13:38:03;;;;;;;13.93;8.57;;;;;;;;;;5056564;28;20031;-80
2022/11/12 13:40:29;;;;;;;10.15;6.38;;;;;;;;;;5074714;28;20475;-81
2022/11/12 13:43:04;;;;;;;7.00;5.15;;;;;;;;;;5074395;28;20025;-83
2022/11/12 13:45:32;;;;;;;9.07;6.18;;;;;;;;;;5089914;28;20174;-81
2022/11/12 13:47:58;;;;;;;8.80;6.60;;;;;;;;;;5074066;28;20065;-81
2022/11/12 13:50:24;;;;;;;10.65;5.63;;;;;;;;;;5074441;28;20024;-85
2022/11/12 13:52:51;;;;;;;11.60;6.50;;;;;;;;;;5074073;28;20024;-81
2022/11/12 13:55:21;;;;;;;16.80;10.52;;;;;;;;;;5074363;28;20459;-80
2022/11/12 13:57:50;;;;;;;12.45;9.57;;;;;;;;;;5055845;28;20029;-84
2022/11/12 14:00:16;;;;;;;13.02;9.27;;;;;;;;;;5073941;28;20147;-81
2022/11/12 14:02:44;;;;;;;18.27;12.65;;;;;;;;;;5073997;28;20017;-83
2022/11/12 14:05:20;;;;;;;21.08;13.10;;;;;;;;;;5073989;28;20037;-80
2022/11/12 14:07:54;;;;;;;20.30;13.63;;;;;;;;;;5073905;28;20013;-83
2022/11/12 14:10:29;;;;;;;10.10;7.45;;;;;;;;;;5074027;28;20043;-80
2022/11/12 14:13:14;;;;;;;10.73;7.60;;;;;;;;;;5089416;28;20028;-80
2022/11/12 14:15:59;;;;;;;5.68;3.70;;;;;;;;;;5073805;28;20435;-81
2022/11/12 14:18:30;;;;;;;14.27;10.07;;;;;;;;;;5073764;28;20056;-84
2022/11/12 14:20:57;;;;;;;30.88;25.38;;;;;;;;;;5073505;28;20032;-80
2022/11/12 14:23:24;;;;;;;6.25;5.65;;;;;;;;;;5073612;28;20414;-82
2022/11/12 14:25:51;;;;;;;8.27;6.07;;;;;;;;;;5073681;28;20019;-80
2022/11/12 14:28:28;;;;;;;4.80;4.10;;;;;;;;;;5073528;28;20414;-82
2022/11/12 14:30:55;;;;;;;9.00;5.43;;;;;;;;;;5073309;28;20390;-80
2022/11/12 14:33:22;;;;;;;7.22;4.80;;;;;;;;;;5073420;28;20100;-82
2022/11/12 14:35:49;;;;;;;5.30;4.65;;;;;;;;;;5073143;28;20028;-83
2022/11/12 14:38:35;;;;;;;9.73;6.72;;;;;;;;;;5073521;28;20024;-80
2022/11/12 14:41:07;;;;;;;11.52;7.93;;;;;;;;;;5073619;28;20025;-80
2022/11/12 14:43:37;;;;;;;26.65;15.27;;;;;;;;;;5073649;28;20021;-79
2022/11/12 14:46:04;;;;;;;13.57;9.05;;;;;;;;;;5073321;28;20479;-79
2022/11/12 14:48:49;;;;;;;20.23;13.65;;;;;;;;;;5055112;28;20123;-80
2022/11/12 14:51:15;;;;;;;16.70;10.38;;;;;;;;;;5073063;28;20031;-80
2022/11/12 14:53:43;;;;;;;17.25;10.48;;;;;;;;;;5073200;28;20059;-79
2022/11/12 14:56:11;;;;;;;16.80;11.35;;;;;;;;;;5072980;28;20016;-82
2022/11/12 14:58:38;;;;;;;15.43;11.38;;;;;;;;;;5072837;28;20479;-82
2022/11/12 15:01:21;;;;;;;14.20;10.73;;;;;;;;;;5072918;28;20021;-79
2022/11/12 15:03:47;;;;;;;16.35;12.38;;;;;;;;;;5072883;28;20028;-80
2022/11/12 15:06:15;;;;;;;18.02;12.27;;;;;;;;;;5072907;28;20059;-80
2022/11/12 15:08:41;;;;;;;16.42;12.07;;;;;;;;;;5072897;28;20032;-83
2022/11/12 15:11:26;;;;;;;18.05;14.15;;;;;;;;;;5072094;28;20032;-79